Time;durP1;ratioP1;P1;durP2;ratioP2;P2;SDS_P1;SDS_P2;PMS_P1;PMS_P2;Temp;Humidity;BMP_temperature;BMP_pressure;BME280_temperature;BME280_humidity;BME280_pressure;Samples;Min_cycle;Max_cycle;Signal;HPM_P1;HPM_P2
2023/08/23 00:01:27;;;;;;;1999.90;999.90;;;19.30;99.90;;;;;;5031465;28;20182;-74
2023/08/23 00:03:52;;;;;;;1999.90;999.90;;;19.30;99.90;;;;;;5031701;28;20549;-74
2023/08/23 00:06:18;;;;;;;1999.90;999.90;;;19.30;99.90;;;;;;5031533;28;20208;-74
2023/08/23 00:08:44;;;;;;;1999.90;999.90;;;19.20;99.90;;;;;;5031543;28;20578;-74
2023/08/23 00:11:09;;;;;;;1999.90;999.90;;;19.20;99.90;;;;;;5031378;28;20630;-74
2023/08/23 00:13:35;;;;;;;1999.90;999.90;;;19.10;99.90;;;;;;5031516;28;20259;-74
2023/08/23 00:16:00;;;;;;;1999.90;999.90;;;19.10;99.90;;;;;;5032517;28;20646;-74
2023/08/23 00:18:26;;;;;;;1999.90;999.90;;;19.00;99.90;;;;;;5035467;28;20172;-74
2023/08/23 00:20:51;;;;;;;1999.90;999.90;;;18.90;99.90;;;;;;5035263;28;20174;-74
2023/08/23 00:23:17;;;;;;;1999.90;999.90;;;18.80;99.90;;;;;;5035233;28;20176;-74
2023/08/23 00:25:43;;;;;;;1999.90;999.90;;;18.90;99.90;;;;;;5035223;28;20195;-74
2023/08/23 00:28:08;;;;;;;1999.90;999.90;;;18.70;99.90;;;;;;5034088;28;20199;-74
2023/08/23 00:30:34;;;;;;;1999.90;999.90;;;18.70;99.90;;;;;;5035277;28;20179;-74
2023/08/23 00:32:59;;;;;;;1999.90;999.90;;;18.70;99.90;;;;;;5034874;28;20618;-74
2023/08/23 00:35:25;;;;;;;1999.90;999.90;;;18.80;99.90;;;;;;5035057;28;20247;-73
2023/08/23 00:37:50;;;;;;;1999.90;999.90;;;18.80;99.90;;;;;;5035108;28;20181;-74
2023/08/23 00:40:18;;;;;;;1999.90;999.90;;;18.80;99.90;;;;;;5035130;28;20168;-74
2023/08/23 00:42:44;;;;;;;1999.90;999.90;;;18.70;99.90;;;;;;5034715;28;20173;-74
2023/08/23 00:45:10;;;;;;;1999.90;999.90;;;18.70;99.90;;;;;;5035345;28;20430;-74
2023/08/23 00:47:35;;;;;;;1999.90;999.90;;;18.70;99.90;;;;;;5036226;28;20174;-75
2023/08/23 00:50:01;;;;;;;1999.90;999.90;;;18.70;99.90;;;;;;5035872;28;20201;-74
2023/08/23 00:52:28;;;;;;;1999.90;999.90;;;18.70;99.90;;;;;;5035486;28;20160;-74
2023/08/23 00:54:54;;;;;;;1999.90;999.90;;;18.60;99.90;;;;;;5035589;28;20803;-74
2023/08/23 00:57:21;;;;;;;1999.90;999.90;;;18.60;99.90;;;;;;5035635;28;20402;-74
2023/08/23 00:59:47;;;;;;;1999.90;999.90;;;18.50;99.90;;;;;;5035797;28;20427;-74
2023/08/23 01:02:13;;;;;;;1999.90;999.90;;;18.40;99.90;;;;;;5034872;28;20469;-75
2023/08/23 01:04:38;;;;;;;1999.90;999.90;;;18.30;99.90;;;;;;5034979;28;20822;-74
2023/08/23 01:07:10;;;;;;;1999.90;999.90;;;18.30;99.90;;;;;;5035556;28;20174;-74
2023/08/23 01:09:51;;;;;;;1999.90;999.90;;;18.20;99.90;;;;;;5035354;28;20286;-74
2023/08/23 01:12:35;;;;;;;1999.90;999.90;;;18.10;99.90;;;;;;5035092;28;20461;-75
2023/08/23 01:15:12;;;;;;;1999.90;999.90;;;18.10;99.90;;;;;;5034914;28;20515;-74
2023/08/23 01:17:43;;;;;;;1999.90;999.90;;;18.10;99.90;;;;;;5034873;28;20804;-73
2023/08/23 01:20:15;;;;;;;1999.90;999.90;;;18.10;99.90;;;;;;5034935;28;20406;-74
2023/08/23 01:22:48;;;;;;;1999.90;999.90;;;18.10;99.90;;;;;;5034600;28;20453;-74
2023/08/23 01:25:14;;;;;;;1999.90;999.90;;;18.10;99.90;;;;;;5034886;28;20847;-74
2023/08/23 01:27:39;;;;;;;1999.90;999.90;;;18.10;99.90;;;;;;5033811;28;20422;-73
2023/08/23 01:30:06;;;;;;;1999.90;999.90;;;18.10;99.90;;;;;;5034948;28;20976;-74
2023/08/23 01:33:02;;;;;;;1999.90;999.90;;;18.10;99.90;;;;;;5034558;28;20654;-74
2023/08/23 01:35:45;;;;;;;1999.90;999.90;;;18.00;99.90;;;;;;5034926;28;20438;-74
2023/08/23 01:38:11;;;;;;;1999.90;999.90;;;18.00;99.90;;;;;;5034625;28;20410;-74
2023/08/23 01:40:38;;;;;;;1999.90;999.90;;;17.90;99.90;;;;;;5034552;28;20414;-74
2023/08/23 01:43:03;;;;;;;1999.90;999.90;;;17.90;99.90;;;;;;5034298;28;20411;-74
2023/08/23 01:45:29;;;;;;;1999.90;999.90;;;17.80;99.90;;;;;;5034799;28;20789;-75
2023/08/23 01:47:55;;;;;;;1999.90;999.90;;;17.80;99.90;;;;;;5034670;28;20172;-75
2023/08/23 01:50:20;;;;;;;1999.90;999.90;;;17.70;99.90;;;;;;5034926;28;20630;-74
2023/08/23 01:52:46;;;;;;;1999.90;999.90;;;17.70;99.90;;;;;;5034326;28;20165;-74
2023/08/23 01:55:13;;;;;;;1999.90;999.90;;;17.60;99.90;;;;;;5034247;28;20266;-74
2023/08/23 01:57:40;;;;;;;1999.90;999.90;;;17.60;99.90;;;;;;5034537;28;20686;-74
2023/08/23 02:00:06;;;;;;;1999.90;999.90;;;17.60;99.90;;;;;;5034645;28;20409;-74
2023/08/23 02:02:31;;;;;;;1999.90;999.90;;;17.50;99.90;;;;;;5034210;28;20419;-74
2023/08/23 02:04:57;;;;;;;1999.90;999.90;;;17.50;99.90;;;;;;5034543;28;20494;-74
2023/08/23 02:07:23;;;;;;;1999.90;999.90;;;17.40;99.90;;;;;;5034501;28;20175;-73
2023/08/23 02:09:48;;;;;;;1999.90;999.90;;;17.40;99.90;;;;;;5032903;28;20269;-74
2023/08/23 02:12:14;;;;;;;1999.90;999.90;;;17.40;99.90;;;;;;5033575;28;20206;-74
2023/08/23 02:14:39;;;;;;;1999.90;999.90;;;17.40;99.90;;;;;;5033778;28;20196;-74
2023/08/23 02:17:05;;;;;;;1999.90;999.90;;;17.30;99.90;;;;;;5033538;28;20633;-74
2023/08/23 02:19:30;;;;;;;1999.90;999.90;;;17.30;99.90;;;;;;5033390;28;20362;-74
2023/08/23 02:21:56;;;;;;;1999.90;999.90;;;17.20;99.90;;;;;;5033237;28;20173;-74
2023/08/23 02:24:21;;;;;;;1999.90;999.90;;;17.20;99.90;;;;;;5034274;28;20551;-74
2023/08/23 02:26:47;;;;;;;1999.90;999.90;;;17.20;99.90;;;;;;5034058;28;20230;-75
2023/08/23 02:29:12;;;;;;;1999.90;999.90;;;17.30;99.90;;;;;;5034095;28;20258;-74
2023/08/23 02:31:38;;;;;;;1999.90;999.90;;;17.20;99.90;;;;;;5033606;28;20180;-74
2023/08/23 02:34:04;;;;;;;1999.90;999.90;;;17.20;99.90;;;;;;5033963;28;20218;-74
2023/08/23 02:36:29;;;;;;;1999.90;999.90;;;17.00;99.90;;;;;;5033934;28;20219;-74
2023/08/23 02:38:55;;;;;;;1999.90;999.90;;;17.10;99.90;;;;;;5044439;28;20173;-75
2023/08/23 02:41:21;;;;;;;1999.90;999.90;;;17.10;99.90;;;;;;5044943;28;20196;-76
2023/08/23 02:43:46;;;;;;;1999.90;999.90;;;17.00;99.90;;;;;;5045112;28;20182;-76
2023/08/23 02:46:12;;;;;;;1999.90;999.90;;;17.10;99.90;;;;;;5046680;28;20283;-76
2023/08/23 02:48:37;;;;;;;1999.90;999.90;;;17.10;99.90;;;;;;5045394;28;20223;-75
2023/08/23 02:51:03;;;;;;;1999.90;999.90;;;17.00;99.90;;;;;;5043644;28;20604;-76
2023/08/23 02:53:28;;;;;;;1999.90;999.90;;;17.00;99.90;;;;;;5044481;28;20181;-75
2023/08/23 02:55:54;;;;;;;1999.90;999.90;;;17.00;99.90;;;;;;5043428;28;20188;-76
2023/08/23 02:58:20;;;;;;;1999.90;999.90;;;17.00;99.90;;;;;;5045263;28;20200;-75
2023/08/23 03:00:45;;;;;;;1999.90;999.90;;;17.00;99.90;;;;;;5044408;28;20183;-75
2023/08/23 03:03:11;;;;;;;1999.90;999.90;;;17.00;99.90;;;;;;5042928;28;20259;-76
2023/08/23 03:05:36;;;;;;;1999.90;999.90;;;17.00;99.90;;;;;;5046575;28;20209;-75
2023/08/23 03:08:02;;;;;;;1999.90;999.90;;;17.00;99.90;;;;;;5045037;28;20175;-75
2023/08/23 03:10:27;;;;;;;1999.90;999.90;;;16.90;99.90;;;;;;5043876;28;20183;-75
2023/08/23 03:12:53;;;;;;;1999.90;999.90;;;16.90;99.90;;;;;;5043825;28;20630;-75
2023/08/23 03:15:19;;;;;;;1999.90;999.90;;;16.90;99.90;;;;;;5045542;28;20742;-75
2023/08/23 03:17:45;;;;;;;1999.90;999.90;;;17.00;99.90;;;;;;5045263;28;20552;-76
2023/08/23 03:20:11;;;;;;;1999.90;999.90;;;16.90;99.90;;;;;;5043587;28;20454;-75
2023/08/23 03:22:36;;;;;;;1999.90;999.90;;;16.90;99.90;;;;;;5044446;28;20175;-75
2023/08/23 03:25:02;;;;;;;1999.90;999.90;;;16.90;99.90;;;;;;5044705;28;20283;-76
2023/08/23 03:27:27;;;;;;;1999.90;999.90;;;16.90;99.90;;;;;;5043862;28;20620;-76
2023/08/23 03:29:53;;;;;;;1999.90;999.90;;;16.80;99.90;;;;;;5042691;28;20691;-75
2023/08/23 03:32:21;;;;;;;1999.90;999.90;;;16.80;99.90;;;;;;5042882;28;20246;-75
2023/08/23 03:34:47;;;;;;;1999.90;999.90;;;16.90;99.90;;;;;;5043151;28;20192;-75
2023/08/23 03:37:12;;;;;;;1999.90;999.90;;;16.90;99.90;;;;;;5043364;28;20489;-76
2023/08/23 03:39:38;;;;;;;1999.90;999.90;;;16.90;99.90;;;;;;5043003;28;20177;-75
2023/08/23 03:42:04;;;;;;;1999.90;999.90;;;16.90;99.90;;;;;;5041661;28;20550;-76
2023/08/23 03:44:30;;;;;;;1999.90;999.90;;;16.80;99.90;;;;;;5043300;28;20195;-75
2023/08/23 03:46:57;;;;;;;1999.90;999.90;;;16.80;99.90;;;;;;5042593;28;20450;-75
2023/08/23 03:49:22;;;;;;;1999.90;999.90;;;16.80;99.90;;;;;;5043590;28;20268;-75
2023/08/23 03:51:48;;;;;;;1999.90;999.90;;;16.70;99.90;;;;;;5044384;28;20410;-75
2023/08/23 03:54:13;;;;;;;1999.90;999.90;;;16.80;99.90;;;;;;5047279;28;20534;-76
2023/08/23 03:56:39;;;;;;;1999.90;999.90;;;16.70;99.90;;;;;;5046809;28;20176;-75
2023/08/23 03:59:05;;;;;;;1999.90;999.90;;;16.70;99.90;;;;;;5045942;28;20193;-76
2023/08/23 04:01:30;;;;;;;1999.90;999.90;;;16.70;99.90;;;;;;5047264;28;20179;-75
2023/08/23 04:03:56;;;;;;;1999.90;999.90;;;16.60;99.90;;;;;;5048707;28;20172;-75
2023/08/23 04:06:21;;;;;;;1999.90;999.90;;;16.60;99.90;;;;;;5050240;28;20210;-76
2023/08/23 04:08:47;;;;;;;1999.90;999.90;;;16.50;99.90;;;;;;5051059;28;20206;-76
2023/08/23 04:11:12;;;;;;;1999.90;999.90;;;16.50;99.90;;;;;;5050267;28;20201;-76
2023/08/23 04:13:38;;;;;;;1999.90;999.90;;;16.40;99.90;;;;;;5050510;28;20173;-76
2023/08/23 04:16:04;;;;;;;1999.90;999.90;;;16.40;99.90;;;;;;5051491;28;20276;-75
2023/08/23 04:18:29;;;;;;;1999.90;999.90;;;16.40;99.90;;;;;;5051900;28;20272;-75
2023/08/23 04:20:59;;;;;;;1999.90;999.90;;;16.50;99.90;;;;;;5049885;28;20181;-76
2023/08/23 04:23:25;;;;;;;1999.90;999.90;;;16.40;99.90;;;;;;5049943;28;20186;-76
2023/08/23 04:25:51;;;;;;;1999.90;999.90;;;16.40;99.90;;;;;;5048684;28;20433;-76
2023/08/23 04:28:16;;;;;;;1999.90;999.90;;;16.50;99.90;;;;;;5049921;28;20450;-75
2023/08/23 04:30:42;;;;;;;1999.90;999.90;;;16.40;99.90;;;;;;5051071;28;20200;-75
2023/08/23 04:33:09;;;;;;;1999.90;999.90;;;16.40;99.90;;;;;;5050499;28;20206;-76
2023/08/23 04:35:35;;;;;;;1999.90;999.90;;;16.40;99.90;;;;;;5051295;28;20438;-75
2023/08/23 04:38:01;;;;;;;1999.90;999.90;;;16.40;99.90;;;;;;5046903;28;20466;-75
2023/08/23 04:40:26;;;;;;;1999.90;999.90;;;16.30;99.90;;;;;;5045526;28;20179;-75
2023/08/23 04:42:52;;;;;;;1999.90;999.90;;;16.30;99.90;;;;;;5046813;28;20199;-75
2023/08/23 04:45:17;;;;;;;1999.90;999.90;;;16.30;99.90;;;;;;5033023;28;20782;-74
2023/08/23 04:47:43;;;;;;;1999.90;999.90;;;16.30;99.90;;;;;;5024821;28;20606;-74
2023/08/23 04:50:09;;;;;;;1999.90;999.90;;;16.30;99.90;;;;;;5034831;28;20209;-73
2023/08/23 04:52:34;;;;;;;1999.90;999.90;;;16.40;99.90;;;;;;5034408;28;20265;-74
2023/08/23 04:55:00;;;;;;;1999.90;999.90;;;16.40;99.90;;;;;;5026477;28;20543;-74
2023/08/23 04:57:25;;;;;;;1999.90;999.90;;;16.40;99.90;;;;;;5034816;28;20167;-74
2023/08/23 04:59:53;;;;;;;1999.90;999.90;;;16.40;99.90;;;;;;5034796;28;20671;-74
2023/08/23 05:02:18;;;;;;;1999.90;999.90;;;16.50;99.90;;;;;;5025396;28;20183;-74
2023/08/23 05:04:44;;;;;;;1999.90;999.90;;;16.50;99.90;;;;;;5032474;28;20450;-74
2023/08/23 05:07:09;;;;;;;1999.90;999.90;;;16.50;99.90;;;;;;5026272;28;20172;-74
2023/08/23 05:09:35;;;;;;;1999.90;999.90;;;16.50;99.90;;;;;;5034475;28;20206;-74
2023/08/23 05:12:00;;;;;;;1999.90;999.90;;;16.60;99.90;;;;;;5034204;28;20174;-74
2023/08/23 05:14:26;;;;;;;1999.90;999.90;;;16.60;99.90;;;;;;5034246;28;20195;-74
2023/08/23 05:16:52;;;;;;;1999.90;999.90;;;16.70;99.90;;;;;;5026884;28;20250;-75
2023/08/23 05:19:17;;;;;;;1999.90;999.90;;;16.70;99.90;;;;;;5035116;28;20189;-74
2023/08/23 05:21:43;;;;;;;1999.90;999.90;;;16.80;99.90;;;;;;5029741;28;20280;-74
2023/08/23 05:24:08;;;;;;;1999.90;999.90;;;17.00;99.90;;;;;;5033857;28;20179;-74
2023/08/23 05:26:34;;;;;;;1999.90;999.90;;;16.90;99.90;;;;;;5026067;28;20252;-74
2023/08/23 05:29:00;;;;;;;1999.90;999.90;;;16.90;99.90;;;;;;5033475;28;20262;-74
2023/08/23 05:31:25;;;;;;;1999.90;999.90;;;16.90;99.90;;;;;;5033538;28;20724;-74
2023/08/23 05:33:51;;;;;;;1999.90;999.90;;;17.00;99.90;;;;;;5033784;28;20172;-74
2023/08/23 05:36:16;;;;;;;1999.90;999.90;;;17.00;99.90;;;;;;5034518;28;20269;-75
2023/08/23 05:38:42;;;;;;;1999.90;999.90;;;17.10;99.90;;;;;;5034722;28;20181;-75
2023/08/23 05:41:08;;;;;;;1999.90;999.90;;;17.10;99.90;;;;;;5034548;28;20174;-74
2023/08/23 05:43:33;;;;;;;1999.90;999.90;;;17.20;99.90;;;;;;5034199;28;20172;-74
2023/08/23 05:45:59;;;;;;;1999.90;999.90;;;17.20;99.90;;;;;;5023220;28;20212;-73
2023/08/23 05:48:25;;;;;;;1999.90;999.90;;;17.30;99.90;;;;;;5023032;28;20200;-74
2023/08/23 05:50:50;;;;;;;1999.90;999.90;;;17.30;99.90;;;;;;5034023;28;20902;-74
2023/08/23 05:53:19;;;;;;;1999.90;999.90;;;17.30;99.90;;;;;;5034451;28;20171;-74
2023/08/23 05:55:47;;;;;;;1999.90;999.90;;;17.40;99.90;;;;;;5034463;28;20186;-75
2023/08/23 05:58:13;;;;;;;1999.90;999.90;;;17.40;99.90;;;;;;5034570;28;20546;-74
2023/08/23 06:00:38;;;;;;;1999.90;999.90;;;17.50;99.90;;;;;;5034573;28;20486;-74
2023/08/23 06:03:04;;;;;;;1999.90;999.90;;;17.60;99.90;;;;;;5034205;28;20424;-74
2023/08/23 06:05:29;;;;;;;1999.90;999.90;;;17.60;99.90;;;;;;5034367;28;20239;-74
2023/08/23 06:07:55;;;;;;;1999.90;999.90;;;17.70;99.90;;;;;;5034314;28;20172;-74
2023/08/23 06:10:21;;;;;;;1999.90;999.90;;;17.80;99.90;;;;;;5034346;28;20172;-75
2023/08/23 06:12:47;;;;;;;1999.90;999.90;;;17.90;99.90;;;;;;5034070;28;20534;-75
2023/08/23 06:15:13;;;;;;;1999.90;999.90;;;18.00;99.90;;;;;;5033796;28;20184;-74
2023/08/23 06:17:38;;;;;;;1999.90;999.90;;;18.10;99.90;;;;;;5034056;28;20408;-75
2023/08/23 06:20:04;;;;;;;1999.90;999.90;;;18.10;99.90;;;;;;5034370;28;20532;-73
2023/08/23 06:22:30;;;;;;;1999.90;999.90;;;18.10;99.90;;;;;;5034078;28;20495;-74
2023/08/23 06:24:56;;;;;;;1999.90;999.90;;;18.20;99.90;;;;;;5033833;28;20486;-74
2023/08/23 06:27:21;;;;;;;1999.90;999.90;;;18.30;99.90;;;;;;5033819;28;20168;-74
2023/08/23 06:29:47;;;;;;;1999.90;999.90;;;18.40;99.90;;;;;;5033587;28;20207;-75
2023/08/23 06:32:12;;;;;;;1999.90;999.90;;;18.40;99.90;;;;;;5033040;28;20638;-74
2023/08/23 06:34:39;;;;;;;1999.90;999.90;;;18.40;99.90;;;;;;5033126;28;20188;-75
2023/08/23 06:37:05;;;;;;;1999.90;999.90;;;18.40;99.90;;;;;;5033140;28;20532;-75
2023/08/23 06:39:30;;;;;;;1999.90;999.90;;;18.50;99.90;;;;;;5032886;28;20418;-74
2023/08/23 06:41:56;;;;;;;1999.90;999.90;;;18.50;99.90;;;;;;5032666;28;20179;-75
2023/08/23 06:44:22;;;;;;;1999.90;999.90;;;18.60;99.90;;;;;;5032873;28;20567;-75
2023/08/23 06:46:47;;;;;;;1999.90;999.90;;;18.70;99.90;;;;;;5032830;28;20174;-76
2023/08/23 06:49:13;;;;;;;1999.90;999.90;;;18.70;99.90;;;;;;5032623;28;20753;-74
2023/08/23 06:51:38;;;;;;;1999.90;999.90;;;18.70;99.90;;;;;;5032428;28;20170;-74
2023/08/23 06:54:04;;;;;;;1999.90;999.90;;;18.80;99.90;;;;;;5032666;28;20194;-75
2023/08/23 06:56:30;;;;;;;1999.90;999.90;;;18.90;99.90;;;;;;5032735;28;20171;-75
2023/08/23 06:58:55;;;;;;;1999.90;999.90;;;19.00;99.90;;;;;;5032497;28;20168;-75
2023/08/23 07:01:21;;;;;;;1999.90;999.90;;;19.10;99.90;;;;;;5031587;28;20550;-74
2023/08/23 07:03:47;;;;;;;1999.90;999.90;;;19.20;99.90;;;;;;5023987;28;20181;-75
2023/08/23 07:06:14;;;;;;;1999.90;999.90;;;19.20;99.90;;;;;;5026580;28;20542;-75
2023/08/23 07:08:41;;;;;;;1999.90;999.90;;;19.30;99.90;;;;;;5030127;28;20208;-75
2023/08/23 07:11:07;;;;;;;1999.90;999.90;;;19.30;99.90;;;;;;5032284;28;20975;-74
2023/08/23 07:13:34;;;;;;;1999.90;999.90;;;19.40;99.90;;;;;;5032428;28;20462;-75
2023/08/23 07:16:00;;;;;;;1999.90;999.90;;;19.50;99.90;;;;;;5032224;28;20476;-75
2023/08/23 07:18:25;;;;;;;1999.90;999.90;;;19.60;99.90;;;;;;5032248;28;20441;-75
2023/08/23 07:20:51;;;;;;;1999.90;999.90;;;19.70;99.90;;;;;;5029166;28;20192;-74
2023/08/23 07:23:17;;;;;;;1999.90;999.90;;;19.70;99.90;;;;;;5026615;28;20179;-74
2023/08/23 07:25:44;;;;;;;1999.90;999.90;;;19.80;99.90;;;;;;5031415;28;20199;-74
2023/08/23 07:28:12;;;;;;;1999.90;999.90;;;19.90;99.90;;;;;;5032048;28;20196;-74
2023/08/23 07:30:43;;;;;;;1999.90;999.90;;;19.80;99.90;;;;;;5031997;28;20411;-74
2023/08/23 07:33:09;;;;;;;1999.90;999.90;;;19.80;99.90;;;;;;5031672;28;20458;-74
2023/08/23 07:35:34;;;;;;;1999.90;999.90;;;19.70;99.90;;;;;;5031290;28;20829;-74
2023/08/23 07:38:00;;;;;;;1999.90;999.90;;;19.80;99.90;;;;;;5024220;28;20175;-74
2023/08/23 07:40:25;;;;;;;1999.90;999.90;;;19.80;99.90;;;;;;5031258;28;20171;-74
2023/08/23 07:42:51;;;;;;;1999.90;999.90;;;19.80;99.90;;;;;;5024246;28;20236;-74
2023/08/23 07:45:16;;;;;;;1999.90;999.90;;;19.90;99.90;;;;;;5023562;28;20189;-74
2023/08/23 07:47:42;;;;;;;1999.90;999.90;;;20.00;99.90;;;;;;5018350;28;20170;-74
2023/08/23 07:50:08;;;;;;;1999.90;999.90;;;20.10;99.90;;;;;;5011895;28;20712;-75
2023/08/23 07:52:35;;;;;;;1999.90;999.90;;;20.20;99.90;;;;;;5027803;28;20222;-75
2023/08/23 07:55:01;;;;;;;1999.90;999.90;;;20.30;99.90;;;;;;5019238;28;20429;-74
2023/08/23 07:57:26;;;;;;;1999.90;999.90;;;20.40;99.90;;;;;;5026249;28;20857;-74
2023/08/23 07:59:55;;;;;;;1999.90;999.90;;;20.50;99.90;;;;;;5019718;28;20183;-73
2023/08/23 08:02:20;;;;;;;1999.90;999.90;;;20.60;99.90;;;;;;5027192;28;20189;-74
2023/08/23 08:04:47;;;;;;;1999.90;999.90;;;20.70;99.90;;;;;;5026564;28;20443;-74
2023/08/23 08:07:12;;;;;;;1999.90;999.90;;;20.80;99.90;;;;;;5027575;28;20643;-72
2023/08/23 08:09:38;;;;;;;1999.90;999.90;;;20.80;99.90;;;;;;5026502;28;20530;-73
2023/08/23 08:12:04;;;;;;;1999.90;999.90;;;20.90;99.90;;;;;;5022004;28;20655;-72
2023/08/23 08:14:29;;;;;;;1999.90;999.90;;;21.00;99.90;;;;;;5014530;28;20867;-71
2023/08/23 08:16:55;;;;;;;1999.90;999.90;;;21.10;99.90;;;;;;5026579;28;20996;-71
2023/08/23 08:19:20;;;;;;;1999.90;999.90;;;21.30;99.90;;;;;;5027250;28;20182;-72
2023/08/23 08:21:46;;;;;;;1999.90;999.90;;;21.30;99.90;;;;;;5027539;28;20179;-71
2023/08/23 08:24:12;;;;;;;1999.90;999.90;;;21.20;99.90;;;;;;5026907;28;20638;-71
2023/08/23 08:26:37;;;;;;;1999.90;999.90;;;21.30;99.90;;;;;;5027267;28;20266;-72
2023/08/23 08:29:03;;;;;;;1999.90;999.90;;;21.20;99.90;;;;;;5032268;28;20511;-72
2023/08/23 08:31:29;;;;;;;1999.90;999.90;;;21.30;99.90;;;;;;5034578;28;20255;-72
2023/08/23 08:33:56;;;;;;;1999.90;999.90;;;21.40;99.90;;;;;;5034141;28;20216;-72
2023/08/23 08:36:22;;;;;;;1999.90;999.90;;;21.50;99.90;;;;;;5033971;28;20451;-72
2023/08/23 08:38:47;;;;;;;1999.90;999.90;;;21.70;99.90;;;;;;5031806;28;20459;-72
2023/08/23 08:41:13;;;;;;;1999.90;999.90;;;21.80;99.90;;;;;;5030663;28;20182;-72
2023/08/23 08:43:39;;;;;;;1999.90;999.90;;;21.90;99.90;;;;;;5031142;28;20823;-72
2023/08/23 08:46:06;;;;;;;1999.90;999.90;;;22.00;99.90;;;;;;5030219;28;20458;-71
2023/08/23 08:48:32;;;;;;;1999.90;999.90;;;22.20;99.90;;;;;;5030673;28;20544;-72
2023/08/23 08:50:59;;;;;;;1999.90;999.90;;;22.40;99.90;;;;;;5030746;28;20407;-72
2023/08/23 08:53:26;;;;;;;1999.90;999.90;;;22.60;99.90;;;;;;5030214;28;21222;-71
2023/08/23 08:55:52;;;;;;;1999.90;999.90;;;22.70;99.90;;;;;;5030260;28;20430;-71
2023/08/23 08:58:20;;;;;;;1999.90;999.90;;;22.80;99.90;;;;;;5030951;28;20484;-71
2023/08/23 09:00:48;;;;;;;1999.90;999.90;;;22.90;99.90;;;;;;5030244;28;20176;-71
2023/08/23 09:03:19;;;;;;;1999.90;999.90;;;23.00;99.90;;;;;;5029936;28;20414;-71
2023/08/23 09:05:48;;;;;;;1999.90;999.90;;;23.10;99.90;;;;;;5030231;28;20455;-71
2023/08/23 09:08:14;;;;;;;1999.90;999.90;;;23.10;99.90;;;;;;5030900;28;20415;-73
2023/08/23 09:10:40;;;;;;;1999.90;999.90;;;23.20;99.90;;;;;;5030133;28;20460;-71
2023/08/23 09:13:06;;;;;;;1999.90;999.90;;;23.20;99.90;;;;;;5029756;28;20785;-72
2023/08/23 09:15:31;;;;;;;1999.90;999.90;;;23.30;99.90;;;;;;5030589;28;20546;-71
2023/08/23 09:17:57;;;;;;;1999.90;999.90;;;23.40;99.90;;;;;;5029953;28;20286;-72
2023/08/23 09:20:23;;;;;;;1999.90;999.90;;;23.50;99.90;;;;;;5030309;28;20176;-71
2023/08/23 09:22:55;;;;;;;1999.90;999.90;;;23.60;99.90;;;;;;5030076;28;20192;-73
2023/08/23 09:25:23;;;;;;;1999.90;999.90;;;23.70;99.90;;;;;;5029676;28;20438;-73
2023/08/23 09:27:49;;;;;;;1999.90;999.90;;;23.70;99.90;;;;;;5029601;28;20397;-73
2023/08/23 09:30:15;;;;;;;1999.90;999.90;;;23.90;99.90;;;;;;5027175;28;20441;-73
2023/08/23 09:32:45;;;;;;;1999.90;999.90;;;24.00;99.90;;;;;;5022350;28;20443;-73
2023/08/23 09:35:15;;;;;;;1999.90;999.90;;;24.10;99.90;;;;;;5021753;28;20550;-73
2023/08/23 09:37:45;;;;;;;1999.90;999.90;;;24.10;99.90;;;;;;5022849;28;20427;-73
2023/08/23 09:40:20;;;;;;;1999.90;999.90;;;24.30;99.90;;;;;;5020630;28;20406;-74
2023/08/23 09:42:46;;;;;;;1999.90;999.90;;;24.20;99.90;;;;;;5021737;28;20446;-77
2023/08/23 09:45:20;;;;;;;1999.90;999.90;;;24.30;99.90;;;;;;5021213;28;20451;-73
2023/08/23 09:47:51;;;;;;;1999.90;999.90;;;24.30;99.90;;;;;;5029265;28;20398;-73
2023/08/23 09:50:18;;;;;;;1999.90;999.90;;;24.50;99.90;;;;;;5023567;28;20440;-73
2023/08/23 09:52:49;;;;;;;1999.90;999.90;;;24.80;99.90;;;;;;5019497;28;20930;-73
2023/08/23 09:55:15;;;;;;;1999.90;999.90;;;24.90;99.90;;;;;;5029874;28;20397;-74
2023/08/23 09:57:41;;;;;;;1999.90;999.90;;;24.90;99.90;;;;;;5020658;28;20916;-73
2023/08/23 10:00:07;;;;;;;1999.90;999.90;;;25.10;99.90;;;;;;5029236;28;20411;-73
2023/08/23 10:02:33;;;;;;;1999.90;999.90;;;25.20;99.90;;;;;;5020944;28;20406;-73
2023/08/23 10:05:03;;;;;;;1999.90;999.90;;;25.30;99.90;;;;;;5009014;28;20992;-73
2023/08/23 10:07:31;;;;;;;1999.90;999.90;;;25.30;99.90;;;;;;5010824;28;20466;-73
2023/08/23 10:09:57;;;;;;;1999.90;999.90;;;25.40;99.90;;;;;;5017934;28;20456;-73
2023/08/23 10:12:23;;;;;;;1999.90;999.90;;;25.60;99.90;;;;;;5007570;28;20519;-73
2023/08/23 10:14:51;;;;;;;1999.90;999.90;;;25.60;99.90;;;;;;5008954;28;20197;-73
2023/08/23 10:17:19;;;;;;;1999.90;999.90;;;25.70;99.90;;;;;;5009777;28;21087;-73
2023/08/23 10:19:49;;;;;;;1999.90;999.90;;;25.80;99.90;;;;;;5009256;28;20419;-73
2023/08/23 10:22:16;;;;;;;1999.90;999.90;;;25.90;99.90;;;;;;5018417;28;20427;-74
2023/08/23 10:24:46;;;;;;;1999.90;999.90;;;25.80;99.90;;;;;;5020318;28;20436;-74
2023/08/23 10:27:11;;;;;;;1999.90;999.90;;;25.90;99.90;;;;;;5029299;28;20419;-73
2023/08/23 10:29:38;;;;;;;1999.90;999.90;;;26.00;99.90;;;;;;5028470;28;20483;-74
2023/08/23 10:32:07;;;;;;;1999.90;999.90;;;25.90;99.90;;;;;;5028170;28;20172;-73
2023/08/23 10:34:35;;;;;;;1999.90;999.90;;;26.00;99.90;;;;;;5029051;28;20422;-73
2023/08/23 10:37:11;;;;;;;1999.90;999.90;;;26.00;99.90;;;;;;5020513;28;20385;-73
2023/08/23 10:39:37;;;;;;;1999.90;999.90;;;26.10;99.90;;;;;;5028640;28;20411;-73
2023/08/23 10:42:05;;;;;;;1999.90;999.90;;;26.20;99.90;;;;;;5027939;28;20519;-73
2023/08/23 10:44:30;;;;;;;1999.90;999.90;;;26.20;99.90;;;;;;5025916;28;20678;-73
2023/08/23 10:46:58;;;;;;;1999.90;999.90;;;26.30;99.90;;;;;;5024879;28;20434;-73
2023/08/23 10:49:25;;;;;;;1999.90;999.90;;;26.50;99.90;;;;;;5023647;28;20547;-73
2023/08/23 10:51:52;;;;;;;1999.90;999.90;;;26.50;99.90;;;;;;5028347;28;20880;-73
2023/08/23 10:54:18;;;;;;;1999.90;999.90;;;26.60;99.90;;;;;;5028586;28;20425;-73
2023/08/23 10:56:44;;;;;;;1999.90;999.90;;;26.70;99.90;;;;;;5019631;28;20383;-73
2023/08/23 10:59:09;;;;;;;1999.90;999.90;;;26.90;99.90;;;;;;5028315;28;20176;-74
2023/08/23 11:01:38;;;;;;;1999.90;999.90;;;27.10;99.90;;;;;;5027934;28;20176;-73
2023/08/23 11:04:05;;;;;;;1999.90;999.90;;;27.30;99.90;;;;;;5027756;28;20168;-73
2023/08/23 11:06:31;;;;;;;1999.90;999.90;;;27.40;99.70;;;;;;5028147;28;20459;-74
2023/08/23 11:08:58;;;;;;;1999.90;999.90;;;27.50;99.90;;;;;;5028469;28;21014;-73
2023/08/23 11:11:29;;;;;;;1999.90;999.90;;;27.50;97.20;;;;;;5027434;28;20884;-73
2023/08/23 11:13:55;;;;;;;1999.90;999.90;;;27.50;98.10;;;;;;5027569;28;20422;-73
2023/08/23 11:16:22;;;;;;;1999.90;999.90;;;27.40;97.30;;;;;;5028400;28;20934;-73
2023/08/23 11:18:48;;;;;;;1999.90;999.90;;;27.50;96.40;;;;;;5027724;28;20510;-73
2023/08/23 11:21:14;;;;;;;1999.90;999.90;;;27.60;97.20;;;;;;5027349;28;20431;-73
2023/08/23 11:23:40;;;;;;;1999.90;999.90;;;27.90;96.30;;;;;;5027189;28;20426;-74
2023/08/23 11:26:05;;;;;;;1999.90;999.90;;;28.10;93.10;;;;;;5020479;28;20242;-73
2023/08/23 11:28:31;;;;;;;1999.90;999.90;;;28.30;93.20;;;;;;5027458;28;20204;-74
2023/08/23 11:31:06;;;;;;;1999.90;999.90;;;28.30;90.50;;;;;;5028126;28;20199;-73
2023/08/23 11:33:33;;;;;;;1999.90;999.90;;;28.30;90.00;;;;;;5028279;28;20221;-73
2023/08/23 11:35:59;;;;;;;1999.90;999.90;;;28.50;91.20;;;;;;5027401;28;20423;-73
2023/08/23 11:38:28;;;;;;;1999.90;999.90;;;28.60;90.60;;;;;;5027612;28;20438;-73
2023/08/23 11:40:54;;;;;;;1999.90;999.90;;;28.80;90.30;;;;;;5027974;28;20439;-74
2023/08/23 11:43:19;;;;;;;1999.90;999.90;;;28.90;85.40;;;;;;5027317;28;20454;-73
2023/08/23 11:45:48;;;;;;;1999.90;999.90;;;29.00;77.90;;;;;;5027445;28;20192;-74
2023/08/23 11:48:14;;;;;;;1999.90;999.90;;;29.00;63.20;;;;;;5028088;28;20187;-73
2023/08/23 11:50:40;;;;;;;1999.90;999.90;;;28.70;69.40;;;;;;5027382;28;20426;-73
2023/08/23 11:53:06;;;;;;;1999.90;999.90;;;28.50;69.90;;;;;;5027043;28;20407;-73
2023/08/23 11:55:34;;;;;;;1999.90;999.90;;;28.80;70.70;;;;;;5027985;28;20419;-73